Flugplatz Jesenwang

Für EDMJ sind keine METAR/TAF Berichte vorhanden.
Es werden die Flugwettermeldungen vom Flugplatz Oberpfaffenhofen in 15 km Entfernung angezeigt.

Bericht für EDMO

vom 25.10. um 17:20 UTC

Wind 2 kt aus 200°

Sichtweite 10 km oder mehr

bedeckt in 15000 ft

Temperatur 6.0°C

Taupunkt 5.0°C

Luftfeuchtigkeit 93%

Luftdruck 1021 hPa

EDMO 251720Z AUTO 20002KT 9999 // OVC150/// 06/05 Q1021
Keine Prognose (TAF) verfügbar.
Impressum